createdAt,value
2022-11-04T00:00:10.666Z,10.88
2022-11-04T00:02:37.347Z,11.48
2022-11-04T00:05:04.183Z,11.52
2022-11-04T00:07:49.255Z,10.15
2022-11-04T00:10:15.852Z,11.68
2022-11-04T00:12:42.403Z,9.88
2022-11-04T00:15:27.704Z,10.20
2022-11-04T00:17:54.328Z,10.95
2022-11-04T00:20:39.309Z,10.57
2022-11-04T00:23:24.257Z,10.73
2022-11-04T00:26:10.521Z,10.18
2022-11-04T00:28:43.065Z,10.68
2022-11-04T00:31:29.104Z,9.52
2022-11-04T00:33:58.428Z,11.50
2022-11-04T00:36:25.730Z,11.02
2022-11-04T00:38:52.387Z,10.75
2022-11-04T00:41:28.272Z,12.57
2022-11-04T00:44:00.479Z,12.02
2022-11-04T00:46:28.669Z,11.85
2022-11-04T00:48:55.602Z,10.45
2022-11-04T00:51:22.854Z,12.65
2022-11-04T00:53:50.399Z,15.85
2022-11-04T00:56:17.001Z,12.32
2022-11-04T00:58:43.825Z,11.77
2022-11-04T01:01:12.274Z,14.60
2022-11-04T01:03:39.512Z,11.60
2022-11-04T01:06:06.438Z,12.85
2022-11-04T01:08:33.083Z,13.95
2022-11-04T01:11:06.982Z,12.07
2022-11-04T01:13:34.104Z,10.93
2022-11-04T01:16:01.664Z,11.20
2022-11-04T01:18:28.899Z,15.38
2022-11-04T01:20:55.643Z,14.18
2022-11-04T01:23:22.231Z,13.05
2022-11-04T01:25:48.824Z,12.73
2022-11-04T01:28:15.520Z,10.93
2022-11-04T01:30:42.093Z,11.98
2022-11-04T01:33:08.669Z,13.43
2022-11-04T01:35:35.314Z,12.20
2022-11-04T01:38:01.905Z,15.88
2022-11-04T01:40:28.559Z,11.77
2022-11-04T01:42:55.123Z,13.40
2022-11-04T01:45:24.391Z,14.85
2022-11-04T01:48:09.800Z,13.85
2022-11-04T01:50:37.439Z,12.55
2022-11-04T01:53:13.218Z,13.05
2022-11-04T01:55:55.829Z,11.90
2022-11-04T01:58:26.796Z,11.23
2022-11-04T02:00:53.414Z,11.38
2022-11-04T02:03:34.256Z,12.15
2022-11-04T02:06:02.668Z,12.05
2022-11-04T02:08:29.983Z,10.63
2022-11-04T02:11:00.605Z,12.10
2022-11-04T02:13:28.756Z,11.35
2022-11-04T02:16:28.636Z,11.70
2022-11-04T02:19:36.587Z,12.82
2022-11-04T02:22:12.029Z,11.57
2022-11-04T02:24:47.383Z,11.27
2022-11-04T02:27:20.051Z,13.05
2022-11-04T02:29:52.527Z,11.88
2022-11-04T02:32:34.701Z,11.60
2022-11-04T02:35:38.542Z,14.15
2022-11-04T02:38:30.049Z,12.85
2022-11-04T02:41:05.436Z,12.68
2022-11-04T02:43:41.431Z,13.23
2022-11-04T02:46:22.321Z,12.40
2022-11-04T02:48:54.937Z,12.88
2022-11-04T02:51:31.324Z,12.75
2022-11-04T02:54:16.904Z,14.50
2022-11-04T02:56:51.183Z,12.48
2022-11-04T02:59:23.118Z,12.85
2022-11-04T03:01:53.422Z,12.98
2022-11-04T03:04:28.162Z,11.90
2022-11-04T03:06:56.308Z,14.05
2022-11-04T03:09:23.700Z,12.25
2022-11-04T03:11:55.452Z,13.30
2022-11-04T03:14:35.465Z,13.70
2022-11-04T03:17:08.838Z,13.52
2022-11-04T03:19:47.119Z,13.18
2022-11-04T03:22:20.676Z,13.13
2022-11-04T03:24:49.389Z,13.02
2022-11-04T03:27:37.367Z,13.95
2022-11-04T03:30:14.919Z,13.45
2022-11-04T03:33:11.485Z,13.68
2022-11-04T03:35:38.471Z,13.75
2022-11-04T03:38:05.576Z,13.68
2022-11-04T03:40:32.189Z,13.95
2022-11-04T03:43:08.929Z,13.45
2022-11-04T03:45:36.803Z,13.88
2022-11-04T03:48:03.812Z,14.38
2022-11-04T03:50:33.103Z,14.48
2022-11-04T03:53:00.461Z,14.90
2022-11-04T03:55:48.593Z,14.60
2022-11-04T03:58:31.485Z,13.98
2022-11-04T04:01:31.681Z,14.38
2022-11-04T04:04:06.868Z,13.90
2022-11-04T04:27:16.563Z,17.63
2022-11-04T04:29:45.819Z,16.13
2022-11-04T04:32:14.489Z,16.67
2022-11-04T04:34:41.542Z,16.02
2022-11-04T04:37:23.240Z,15.90
2022-11-04T04:40:23.847Z,16.80
2022-11-04T04:43:12.198Z,15.98
2022-11-04T04:45:42.473Z,17.15
2022-11-04T04:48:12.688Z,16.98
2022-11-04T04:50:45.945Z,19.05
2022-11-04T04:53:13.154Z,16.77
2022-11-04T04:55:41.693Z,17.50
2022-11-04T04:58:09.372Z,18.35
2022-11-04T05:00:36.271Z,17.60
2022-11-04T05:03:02.945Z,17.52
2022-11-04T05:05:29.564Z,18.88
2022-11-04T05:07:56.434Z,20.40
2022-11-04T05:10:23.056Z,23.30
2022-11-04T05:13:08.439Z,20.02
2022-11-04T05:15:35.117Z,19.73
2022-11-04T05:18:02.553Z,22.08
2022-11-04T05:20:30.507Z,19.95
2022-11-04T05:22:57.407Z,23.02
2022-11-04T05:25:24.295Z,24.88
2022-11-04T05:27:50.933Z,25.92
2022-11-04T05:30:17.911Z,19.98
2022-11-04T05:32:44.531Z,18.38
2022-11-04T05:35:11.214Z,16.92
2022-11-04T05:37:37.854Z,16.48
2022-11-04T05:40:05.039Z,17.55
2022-11-04T05:42:32.124Z,23.98
2022-11-04T05:44:58.753Z,24.58
2022-11-04T05:47:25.455Z,32.00
2022-11-04T05:49:52.421Z,17.15
2022-11-04T05:52:19.050Z,17.45
2022-11-04T05:54:45.658Z,22.65
2022-11-04T05:57:12.337Z,20.45
2022-11-04T05:59:39.196Z,22.58
2022-11-04T06:02:06.290Z,20.02
2022-11-04T06:04:33.615Z,25.00
2022-11-04T06:07:00.894Z,18.73
2022-11-04T06:09:39.526Z,18.08
2022-11-04T06:12:11.578Z,17.13
2022-11-04T06:17:07.587Z,15.60
2022-11-04T06:19:34.263Z,18.05
2022-11-04T06:22:00.833Z,17.30
2022-11-04T06:24:27.434Z,17.88
2022-11-04T06:26:54.046Z,20.80
2022-11-04T06:29:20.764Z,19.50
2022-11-04T06:31:47.453Z,20.52
2022-11-04T06:34:14.640Z,18.88
2022-11-04T06:36:41.839Z,19.38
2022-11-04T06:39:08.916Z,20.00
2022-11-04T06:41:36.241Z,20.42
2022-11-04T06:44:03.037Z,20.00
2022-11-04T06:46:38.696Z,19.88
2022-11-04T06:49:07.059Z,21.23
2022-11-04T06:51:33.903Z,19.13
2022-11-04T06:54:00.813Z,19.80
2022-11-04T06:56:27.574Z,17.73
2022-11-04T06:58:55.405Z,18.50
2022-11-04T07:01:24.481Z,17.50
2022-11-04T07:03:57.206Z,17.10
2022-11-04T07:06:24.870Z,18.77
2022-11-04T07:08:53.412Z,18.67
2022-11-04T07:11:22.067Z,17.63
2022-11-04T07:13:49.456Z,16.90
2022-11-04T07:16:17.335Z,17.98
2022-11-04T07:18:44.315Z,18.75
2022-11-04T07:21:12.838Z,18.67
2022-11-04T07:23:39.649Z,18.88
2022-11-04T07:26:08.658Z,21.48
2022-11-04T07:28:35.655Z,19.02
2022-11-04T07:31:03.762Z,19.42
2022-11-04T07:33:30.825Z,20.23
2022-11-04T07:35:58.562Z,21.48
2022-11-04T07:38:25.502Z,20.85
2022-11-04T07:40:52.417Z,22.00
2022-11-04T07:43:19.300Z,21.48
2022-11-04T07:45:46.138Z,21.52
2022-11-04T07:48:12.940Z,20.35
2022-11-04T07:50:40.763Z,19.67
2022-11-04T07:53:08.191Z,21.65
2022-11-04T07:55:43.225Z,21.00
2022-11-04T07:58:10.223Z,23.73
2022-11-04T08:00:36.855Z,22.90
2022-11-04T08:03:03.741Z,21.58
2022-11-04T08:05:30.671Z,21.48
2022-11-04T08:07:57.981Z,21.60
2022-11-04T08:10:24.864Z,22.02
2022-11-04T08:12:52.704Z,22.35
2022-11-04T08:15:19.383Z,22.48
2022-11-04T08:17:46.124Z,23.48
2022-11-04T08:20:13.308Z,22.63
2022-11-04T08:22:40.200Z,21.92
2022-11-04T08:25:07.339Z,21.50
2022-11-04T08:27:34.869Z,20.75
2022-11-04T08:30:02.303Z,20.85
2022-11-04T08:32:29.710Z,20.27
2022-11-04T08:34:56.973Z,19.80
2022-11-04T08:37:23.995Z,21.65
2022-11-04T08:39:50.756Z,19.48
2022-11-04T08:42:18.024Z,19.58
2022-11-04T08:44:44.993Z,19.60
2022-11-04T08:47:11.837Z,19.90
2022-11-04T08:49:41.194Z,20.75
2022-11-04T08:52:08.501Z,21.13
2022-11-04T08:54:35.769Z,21.33
2022-11-04T08:57:03.724Z,19.02
2022-11-04T08:59:30.834Z,20.38
2022-11-04T09:01:57.571Z,21.20
2022-11-04T09:04:24.302Z,21.27
2022-11-04T09:06:52.698Z,20.42
2022-11-04T09:09:20.108Z,18.92
2022-11-04T09:11:47.428Z,19.15
2022-11-04T09:14:15.011Z,20.52
2022-11-04T09:16:42.121Z,19.58
2022-11-04T09:19:09.234Z,17.77
2022-11-04T09:21:36.656Z,21.15
2022-11-04T09:24:03.348Z,20.17
2022-11-04T09:26:30.187Z,20.85
2022-11-04T09:28:58.275Z,20.55
2022-11-04T09:31:26.763Z,21.33
2022-11-04T09:33:54.963Z,20.15
2022-11-04T09:36:22.398Z,20.10
2022-11-04T09:38:49.829Z,20.30
2022-11-04T09:41:42.398Z,20.42
2022-11-04T09:44:28.904Z,21.00
2022-11-04T09:47:00.082Z,19.20
2022-11-04T09:49:32.749Z,19.30
2022-11-04T09:52:02.316Z,17.85
2022-11-04T09:54:47.330Z,16.67
2022-11-04T09:57:19.186Z,19.40
2022-11-04T09:59:47.451Z,18.65
2022-11-04T10:02:32.210Z,18.30
2022-11-04T10:05:29.407Z,16.95
2022-11-04T10:08:25.168Z,18.48
2022-11-04T10:11:22.322Z,17.45
2022-11-04T10:13:52.010Z,17.50
2022-11-04T10:16:25.508Z,16.75
2022-11-04T10:19:32.434Z,18.02
2022-11-04T10:22:04.132Z,16.15
2022-11-04T10:24:42.845Z,16.27
2022-11-04T10:27:17.352Z,18.98
2022-11-04T10:29:52.888Z,18.63
2022-11-04T10:32:35.696Z,15.63
2022-11-04T10:35:17.829Z,16.50
2022-11-04T10:37:47.247Z,17.23
2022-11-04T10:40:37.659Z,13.70
2022-11-04T10:43:10.895Z,15.65
2022-11-04T10:45:48.297Z,14.68
2022-11-04T10:48:30.131Z,13.48
2022-11-04T10:50:59.027Z,12.18
2022-11-04T10:53:31.567Z,13.43
2022-11-04T10:56:17.047Z,12.20
2022-11-04T10:58:47.353Z,12.10
2022-11-04T11:01:29.984Z,11.52
2022-11-04T11:03:57.800Z,11.82
2022-11-04T11:06:30.762Z,12.30
2022-11-04T11:09:01.463Z,12.77
2022-11-04T11:11:47.453Z,12.05
2022-11-04T11:14:17.351Z,12.25
2022-11-04T11:16:45.783Z,10.70
2022-11-04T11:19:12.371Z,11.55
2022-11-04T11:21:50.797Z,10.68
2022-11-04T11:24:27.570Z,12.75
2022-11-04T11:27:00.069Z,10.48
2022-11-04T11:29:40.565Z,11.60
2022-11-04T11:32:28.359Z,11.68
2022-11-04T11:34:55.103Z,11.18
2022-11-04T11:37:25.966Z,10.35
2022-11-04T11:39:52.825Z,10.90
2022-11-04T11:42:20.962Z,9.73
2022-11-04T11:44:50.839Z,11.15
2022-11-04T11:47:30.746Z,10.70
2022-11-04T11:50:18.232Z,11.73
2022-11-04T11:52:46.828Z,10.35
2022-11-04T11:55:28.850Z,9.82
2022-11-04T12:01:03.528Z,9.18
2022-11-04T12:10:18.563Z,9.15
2022-11-04T12:13:23.385Z,8.80
2022-11-04T12:16:09.579Z,11.07
2022-11-04T12:18:54.257Z,9.95
2022-11-04T12:21:35.832Z,9.68
2022-11-04T12:24:39.722Z,9.70
2022-11-04T12:27:14.357Z,10.02
2022-11-04T12:30:07.699Z,11.45
2022-11-04T12:32:48.076Z,9.65
2022-11-04T12:35:36.970Z,9.55
2022-11-04T12:38:16.586Z,9.57
2022-11-04T12:41:04.865Z,10.68
2022-11-04T12:44:02.488Z,10.02
2022-11-04T12:46:46.733Z,9.90
2022-11-04T12:49:25.233Z,9.05
2022-11-04T12:52:15.251Z,9.52
2022-11-04T12:54:57.119Z,9.52
2022-11-04T12:58:02.176Z,10.70
2022-11-04T13:00:31.265Z,9.23
2022-11-04T13:03:08.860Z,10.88
2022-11-04T13:06:02.444Z,9.15
2022-11-04T13:08:39.467Z,10.13
2022-11-04T13:11:25.103Z,10.27
2022-11-04T13:14:00.464Z,10.32
2022-11-04T13:16:29.101Z,10.55
2022-11-04T13:18:58.068Z,9.52
2022-11-04T13:21:28.206Z,10.02
2022-11-04T13:24:01.438Z,9.20
2022-11-04T13:26:28.300Z,10.35
2022-11-04T13:29:11.223Z,10.50
2022-11-04T13:31:54.244Z,11.00
2022-11-04T13:34:36.185Z,10.18
2022-11-04T13:37:12.921Z,10.70
2022-11-04T13:39:59.752Z,11.48
2022-11-04T13:42:52.308Z,10.35
2022-11-04T13:45:20.661Z,11.40
2022-11-04T13:47:53.485Z,11.75
2022-11-04T13:50:38.950Z,10.23
2022-11-04T13:53:09.570Z,11.63
2022-11-04T13:55:47.909Z,11.13
2022-11-04T13:58:24.009Z,10.57
2022-11-04T14:01:12.066Z,12.52
2022-11-04T14:03:59.454Z,11.60
2022-11-04T14:07:04.431Z,13.05
2022-11-04T14:09:43.236Z,12.25
2022-11-04T14:12:17.428Z,12.93
2022-11-04T14:14:47.865Z,14.90
2022-11-04T14:17:33.022Z,14.75
2022-11-04T14:20:06.232Z,11.82
2022-11-04T14:22:43.599Z,12.25
2022-11-04T14:25:22.544Z,11.18
2022-11-04T14:28:00.133Z,11.40
2022-11-04T14:30:59.096Z,11.32
2022-11-04T14:33:54.066Z,11.68
2022-11-04T14:36:20.925Z,11.52
2022-11-04T14:39:21.077Z,12.02
2022-11-04T14:42:02.421Z,12.00
2022-11-04T14:44:50.291Z,12.00
2022-11-04T14:47:26.223Z,13.55
2022-11-04T14:50:01.022Z,11.85
2022-11-04T14:52:39.066Z,11.85
2022-11-04T14:55:14.079Z,11.68
2022-11-04T14:57:52.086Z,10.65
2022-11-04T15:00:23.428Z,13.90
2022-11-04T15:03:45.582Z,11.90
2022-11-04T15:06:03.538Z,13.30
2022-11-04T15:08:42.417Z,11.98
2022-11-04T15:11:38.640Z,12.77
2022-11-04T15:14:15.245Z,12.20
2022-11-04T15:16:45.932Z,11.95
2022-11-04T15:19:18.273Z,12.63
2022-11-04T15:21:48.365Z,12.73
2022-11-04T15:24:17.613Z,12.20
2022-11-04T15:26:51.142Z,12.00
2022-11-04T15:29:19.770Z,12.55
2022-11-04T15:32:05.839Z,13.05
2022-11-04T15:34:34.140Z,12.82
2022-11-04T15:37:06.355Z,12.50
2022-11-04T15:39:43.494Z,13.68
2022-11-04T15:42:43.815Z,13.25
2022-11-04T15:45:22.681Z,13.45
2022-11-04T15:47:50.875Z,12.13
2022-11-04T15:50:26.027Z,14.98
2022-11-04T15:52:56.127Z,13.82
2022-11-04T15:55:25.942Z,14.77
2022-11-04T15:57:53.554Z,14.27
2022-11-04T16:00:24.792Z,17.00
2022-11-04T16:02:57.443Z,17.57
2022-11-04T16:05:29.011Z,18.70
2022-11-04T16:08:14.025Z,17.90
2022-11-04T16:10:41.086Z,16.13
2022-11-04T16:13:17.446Z,16.33
2022-11-04T16:15:51.058Z,14.10
2022-11-04T16:18:34.356Z,14.98
2022-11-04T16:21:14.546Z,13.70
2022-11-04T16:23:51.292Z,17.00
2022-11-04T16:26:26.070Z,15.68
2022-11-04T16:28:58.600Z,17.45
2022-11-04T16:31:34.672Z,16.58
2022-11-04T16:34:01.818Z,16.75
2022-11-04T16:36:33.984Z,17.17
2022-11-04T16:39:09.114Z,18.45
2022-11-04T16:41:40.974Z,17.67
2022-11-04T16:44:20.133Z,16.60
2022-11-04T16:46:46.828Z,16.20
2022-11-04T16:49:19.916Z,15.70
2022-11-04T16:51:49.686Z,16.10
2022-11-04T16:54:16.707Z,15.98
2022-11-04T16:56:44.032Z,16.77
2022-11-04T16:59:12.180Z,15.45
2022-11-04T17:01:42.263Z,17.27
2022-11-04T17:04:09.562Z,16.67
2022-11-04T17:06:36.552Z,14.43
2022-11-04T17:09:03.925Z,16.85
2022-11-04T17:11:30.483Z,14.10
2022-11-04T17:13:57.286Z,15.00
2022-11-04T17:16:24.634Z,14.75
2022-11-04T17:18:51.367Z,16.80
2022-11-04T17:21:20.371Z,14.98
2022-11-04T17:23:47.197Z,15.85
2022-11-04T17:26:14.386Z,13.68
2022-11-04T17:28:41.415Z,14.55
2022-11-04T17:31:08.402Z,14.18
2022-11-04T17:33:35.077Z,17.27
2022-11-04T17:36:07.492Z,14.93
2022-11-04T17:38:34.490Z,15.50
2022-11-04T17:41:19.928Z,14.52
2022-11-04T17:44:01.735Z,15.77
2022-11-04T17:46:37.796Z,16.25
2022-11-04T17:49:07.280Z,15.45
2022-11-04T17:51:34.394Z,15.48
2022-11-04T17:54:01.222Z,16.13
2022-11-04T17:56:28.561Z,17.90
2022-11-04T17:58:55.341Z,17.02
2022-11-04T18:01:23.328Z,16.65
2022-11-04T18:03:52.510Z,18.45
2022-11-04T18:06:20.819Z,18.42
2022-11-04T18:08:47.893Z,16.05
2022-11-04T18:11:35.249Z,16.10
2022-11-04T18:14:02.125Z,15.30
2022-11-04T18:16:29.340Z,14.90
2022-11-04T18:18:58.675Z,16.02
2022-11-04T18:21:26.036Z,16.95
2022-11-04T18:23:52.865Z,17.40
2022-11-04T18:26:19.736Z,17.38
2022-11-04T18:28:46.499Z,15.50
2022-11-04T18:31:22.313Z,16.42
2022-11-04T18:33:48.968Z,15.82
2022-11-04T18:36:15.956Z,15.50
2022-11-04T18:38:42.567Z,15.25
2022-11-04T18:41:10.049Z,14.98
2022-11-04T18:43:36.721Z,16.75
2022-11-04T18:46:14.893Z,17.63
2022-11-04T18:48:42.819Z,18.55
2022-11-04T18:51:12.140Z,17.50
2022-11-04T18:53:38.810Z,16.80
2022-11-04T18:56:11.071Z,15.82
2022-11-04T19:01:11.847Z,17.35
2022-11-04T19:03:38.586Z,15.75
2022-11-04T19:06:11.236Z,17.05
2022-11-04T19:08:45.292Z,17.73
2022-11-04T19:11:28.339Z,17.13
2022-11-04T19:13:58.508Z,17.73
2022-11-04T19:16:26.590Z,17.65
2022-11-04T19:18:55.265Z,17.13
2022-11-04T19:21:24.435Z,15.43
2022-11-04T19:23:51.410Z,16.10
2022-11-04T19:26:22.289Z,17.75
2022-11-04T19:28:50.419Z,16.98
2022-11-04T19:31:20.310Z,16.42
2022-11-04T19:33:48.923Z,17.00
2022-11-04T19:36:17.050Z,15.82
2022-11-04T19:38:46.818Z,16.88
2022-11-04T19:41:34.380Z,16.73
2022-11-04T19:44:02.103Z,16.95
2022-11-04T19:46:28.970Z,17.58
2022-11-04T19:48:56.754Z,18.25
2022-11-04T19:51:29.253Z,17.27
2022-11-04T19:53:58.614Z,17.88
2022-11-04T19:56:25.442Z,19.20
2022-11-04T19:58:52.128Z,20.08
2022-11-04T20:01:19.472Z,23.20
2022-11-04T20:03:46.190Z,23.15
2022-11-04T20:06:14.910Z,21.95
2022-11-04T20:08:43.272Z,23.77
2022-11-04T20:11:10.634Z,23.02
2022-11-04T20:13:49.164Z,21.60
2022-11-04T20:16:17.938Z,22.67
2022-11-04T20:18:50.897Z,22.30
2022-11-04T20:21:19.686Z,23.55
2022-11-04T20:23:47.149Z,23.50
2022-11-04T20:26:20.585Z,21.60
2022-11-04T20:28:47.806Z,26.33
2022-11-04T20:31:21.101Z,23.70
2022-11-04T20:33:49.268Z,23.60
2022-11-04T20:36:18.557Z,26.08
2022-11-04T20:38:47.608Z,21.17
2022-11-04T20:41:19.881Z,21.90
2022-11-04T20:46:16.690Z,20.92
2022-11-04T20:48:43.534Z,21.73
2022-11-04T20:51:12.684Z,21.98
2022-11-04T20:53:40.448Z,21.55
2022-11-04T20:56:10.665Z,22.95
2022-11-04T20:58:39.023Z,22.98
2022-11-04T21:01:17.936Z,22.10
2022-11-04T21:03:45.012Z,21.90
2022-11-04T21:06:12.045Z,23.10
2022-11-04T21:08:38.965Z,22.60
2022-11-04T21:11:06.803Z,23.52
2022-11-04T21:13:34.069Z,22.80
2022-11-04T21:16:01.912Z,21.55
2022-11-04T21:18:29.497Z,20.42
2022-11-04T21:20:57.389Z,24.23
2022-11-04T21:23:25.767Z,24.95
2022-11-04T21:25:57.905Z,21.30
2022-11-04T21:28:26.034Z,22.75
2022-11-04T21:30:54.137Z,21.15
2022-11-04T21:33:21.001Z,21.77
2022-11-04T21:35:51.026Z,28.83
2022-11-04T21:38:18.761Z,23.42
2022-11-04T21:40:46.447Z,24.40
2022-11-04T21:43:13.371Z,24.60
2022-11-04T21:45:40.229Z,27.05
2022-11-04T21:48:07.754Z,22.13
2022-11-04T21:50:34.669Z,21.95
2022-11-04T21:53:01.429Z,20.60
2022-11-04T21:55:28.142Z,22.88
2022-11-04T21:57:54.768Z,23.63
2022-11-04T22:00:21.633Z,22.50
2022-11-04T22:02:51.136Z,21.88
2022-11-04T22:05:18.020Z,23.48
2022-11-04T22:08:03.092Z,22.42
2022-11-04T22:10:29.657Z,22.90
2022-11-04T22:12:56.566Z,23.17
2022-11-04T22:15:41.745Z,22.35
2022-11-04T22:18:08.721Z,23.17
2022-11-04T22:20:36.590Z,22.90
2022-11-04T22:23:03.579Z,23.95
2022-11-04T22:25:31.355Z,22.08
2022-11-04T22:27:58.048Z,23.25
2022-11-04T22:30:25.678Z,23.13
2022-11-04T22:32:53.147Z,24.15
2022-11-04T22:35:19.797Z,21.50
2022-11-04T22:37:46.601Z,22.48
2022-11-04T22:40:13.434Z,21.45
2022-11-04T22:42:40.092Z,23.25
2022-11-04T22:45:07.774Z,22.77
2022-11-04T22:47:36.826Z,20.52
2022-11-04T22:50:04.015Z,23.05
2022-11-04T22:52:31.778Z,30.13
2022-11-04T22:54:58.363Z,24.50
2022-11-04T22:57:25.217Z,24.65
2022-11-04T22:59:51.842Z,22.42
2022-11-04T23:02:18.690Z,22.15
2022-11-04T23:04:45.423Z,21.67
2022-11-04T23:07:12.089Z,22.15
2022-11-04T23:09:58.643Z,22.58
2022-11-04T23:12:44.036Z,22.20
2022-11-04T23:15:29.310Z,23.13
2022-11-04T23:18:14.536Z,22.55
2022-11-04T23:20:41.405Z,22.88
2022-11-04T23:23:26.802Z,23.25
2022-11-04T23:25:53.706Z,23.08
2022-11-04T23:28:38.802Z,22.65
2022-11-04T23:31:05.489Z,24.85
2022-11-04T23:33:50.620Z,25.15
2022-11-04T23:36:36.965Z,24.67
2022-11-04T23:39:03.936Z,23.15
2022-11-04T23:41:49.334Z,24.58
2022-11-04T23:44:35.937Z,24.13
2022-11-04T23:47:21.413Z,26.38
2022-11-04T23:50:06.742Z,23.20
2022-11-04T23:52:52.335Z,21.83
2022-11-04T23:55:37.819Z,22.92
2022-11-04T23:58:23.173Z,24.05
